createdAt,value
2022-10-26T00:00:12.345Z,97344.25
2022-10-26T00:05:13.977Z,97334.09
2022-10-26T00:10:15.768Z,97309.44
2022-10-26T00:15:19.058Z,97302.06
2022-10-26T00:20:20.895Z,97293.84
2022-10-26T00:25:22.553Z,97315.81
2022-10-26T00:30:24.416Z,97323.28
2022-10-26T00:35:44.560Z,97301.88
2022-10-26T00:40:48.025Z,97322.72
2022-10-26T00:45:52.921Z,97311.50
2022-10-26T00:50:58.765Z,97290.94
2022-10-26T00:56:01.178Z,97284.38
2022-10-26T01:01:03.415Z,97284.66
2022-10-26T01:06:06.733Z,97260.50
2022-10-26T01:11:08.642Z,97249.53
2022-10-26T01:16:25.249Z,97267.38
2022-10-26T01:21:41.522Z,97262.16
2022-10-26T01:27:09.291Z,97261.03
2022-10-26T01:32:38.714Z,97272.84
2022-10-26T01:37:48.866Z,97287.38
2022-10-26T01:42:54.878Z,97287.09
2022-10-26T01:47:58.218Z,97298.88
2022-10-26T01:52:59.933Z,97302.69
2022-10-26T01:58:20.305Z,97287.34
2022-10-26T02:03:37.901Z,97292.28
2022-10-26T02:08:55.469Z,97302.47
2022-10-26T02:14:21.909Z,97305.47
2022-10-26T02:19:44.647Z,97301.09
2022-10-26T02:24:50.527Z,97297.53
2022-10-26T02:29:54.386Z,97295.59
2022-10-26T02:34:58.739Z,97295.63
2022-10-26T02:40:04.652Z,97304.38
2022-10-26T02:45:12.691Z,97296.72
2022-10-26T02:50:14.777Z,97297.28
2022-10-26T02:55:27.478Z,97295.63
2022-10-26T03:00:30.723Z,97306.56
2022-10-26T03:05:33.087Z,97293.41
2022-10-26T03:10:41.355Z,97310.72
2022-10-26T03:15:43.198Z,97297.81
2022-10-26T03:20:45.878Z,97286.31
2022-10-26T03:25:47.984Z,97278.09
2022-10-26T03:30:49.822Z,97284.66
2022-10-26T03:35:56.682Z,97281.63
2022-10-26T03:40:59.534Z,97278.59
2022-10-26T03:46:01.555Z,97287.13
2022-10-26T03:51:03.219Z,97304.41
2022-10-26T03:56:05.246Z,97308.53
2022-10-26T04:01:06.944Z,97299.47
2022-10-26T04:06:08.793Z,97312.09
2022-10-26T04:11:10.489Z,97324.19
2022-10-26T04:16:12.142Z,97317.28
2022-10-26T04:21:13.861Z,97300.56
2022-10-26T04:26:15.752Z,97303.84
2022-10-26T04:31:17.452Z,97300.56
2022-10-26T04:36:19.180Z,97300.53
2022-10-26T04:41:20.925Z,97290.09
2022-10-26T04:46:22.697Z,97304.38
2022-10-26T04:51:24.436Z,97309.88
2022-10-26T04:56:26.168Z,97311.25
2022-10-26T05:01:28.004Z,97308.50
2022-10-26T05:06:30.317Z,97315.06
2022-10-26T05:11:32.047Z,97340.63
2022-10-26T05:16:33.828Z,97368.59
2022-10-26T05:21:35.683Z,97394.94
2022-10-26T05:26:37.439Z,97443.31
2022-10-26T05:31:39.120Z,97424.09
2022-10-26T05:36:40.796Z,97460.06
2022-10-26T05:41:42.524Z,97454.56
2022-10-26T05:46:46.869Z,97436.06
2022-10-26T05:51:48.616Z,97432.72
2022-10-26T05:56:50.740Z,97435.97
2022-10-26T06:02:07.081Z,97419.06
2022-10-26T06:07:14.681Z,97428.22
2022-10-26T06:12:19.411Z,97420.78
2022-10-26T06:17:42.108Z,97408.38
2022-10-26T06:23:01.215Z,97302.09
2022-10-26T06:28:21.943Z,97293.31
2022-10-26T06:33:29.566Z,97353.19
2022-10-26T06:38:34.477Z,97400.72
2022-10-26T06:43:36.435Z,97405.91
2022-10-26T06:48:46.964Z,97411.97
2022-10-26T06:54:21.367Z,97418.78
2022-10-26T06:59:37.017Z,97417.94
2022-10-26T07:04:38.729Z,97416.31
2022-10-26T07:09:40.483Z,97404.75
2022-10-26T07:14:42.339Z,97410.78
2022-10-26T07:19:44.865Z,97417.09
2022-10-26T07:24:50.400Z,97420.63
2022-10-26T07:29:52.085Z,97419.47
2022-10-26T07:34:53.830Z,97443.38
2022-10-26T07:39:55.695Z,97449.59
2022-10-26T07:44:57.475Z,97453.38
2022-10-26T07:49:59.408Z,97448.59
2022-10-26T07:55:01.209Z,97462.84
2022-10-26T08:00:04.960Z,97460.84
2022-10-26T08:05:07.038Z,97457.22
2022-10-26T08:10:09.584Z,97468.41
2022-10-26T08:15:12.215Z,97463.66
2022-10-26T08:20:13.967Z,97479.88
2022-10-26T08:25:17.694Z,97472.63
2022-10-26T08:30:22.307Z,97464.91
2022-10-26T08:35:24.228Z,97470.66
2022-10-26T08:40:30.202Z,97459.28
2022-10-26T08:45:38.438Z,97475.75
2022-10-26T08:50:53.762Z,97474.00
2022-10-26T08:56:06.114Z,97482.78
2022-10-26T09:01:08.852Z,97477.19
2022-10-26T09:06:44.551Z,97477.59
2022-10-26T09:12:05.287Z,97483.81
2022-10-26T09:17:47.138Z,97475.13
2022-10-26T09:23:08.325Z,97478.88
2022-10-26T09:28:17.510Z,97481.22
2022-10-26T09:33:27.262Z,97483.09
2022-10-26T09:38:47.385Z,97489.09
2022-10-26T09:43:58.086Z,97497.53
2022-10-26T09:49:06.726Z,97492.81
2022-10-26T09:54:16.065Z,97498.00
2022-10-26T09:59:21.818Z,97513.69
2022-10-26T10:04:24.045Z,97509.31
2022-10-26T10:09:25.774Z,97506.34
2022-10-26T10:14:32.596Z,97507.59
2022-10-26T10:19:38.581Z,97509.94
2022-10-26T10:24:53.434Z,97506.91
2022-10-26T10:30:00.015Z,97515.56
2022-10-26T10:35:24.077Z,97523.16
2022-10-26T10:40:31.384Z,97523.53
2022-10-26T10:45:34.763Z,97533.38
2022-10-26T10:50:36.552Z,97526.50
2022-10-26T10:55:39.085Z,97525.19
2022-10-26T11:00:44.146Z,97537.91
2022-10-26T11:06:00.310Z,97541.88
2022-10-26T11:11:10.662Z,97540.25
2022-10-26T11:16:16.782Z,97547.34
2022-10-26T11:21:30.137Z,97558.91
2022-10-26T11:26:43.572Z,97550.59
2022-10-26T11:31:54.502Z,97555.03
2022-10-26T11:37:03.621Z,97556.66
2022-10-26T11:42:26.263Z,97555.84
2022-10-26T11:48:11.290Z,97563.22
2022-10-26T11:53:17.461Z,97555.44
2022-10-26T11:58:22.991Z,97557.22
2022-10-26T12:03:28.458Z,97566.59
2022-10-26T12:08:35.661Z,97569.28
2022-10-26T12:13:52.739Z,97586.09
2022-10-26T12:18:59.323Z,97584.56
2022-10-26T12:24:22.670Z,97582.19
2022-10-26T12:29:46.303Z,97587.56
2022-10-26T12:34:50.880Z,97585.19
2022-10-26T12:39:52.682Z,97589.59
2022-10-26T12:44:56.470Z,97601.13
2022-10-26T12:50:18.926Z,97605.88
2022-10-26T12:55:20.542Z,97612.13
2022-10-26T13:00:25.224Z,97612.25
2022-10-26T13:05:34.331Z,97609.78
2022-10-26T13:10:38.277Z,97595.00
2022-10-26T13:15:41.067Z,97604.41
2022-10-26T13:21:01.405Z,97610.81
2022-10-26T13:26:12.823Z,97609.97
2022-10-26T13:31:41.591Z,97614.69
2022-10-26T13:36:51.153Z,97611.25
2022-10-26T13:41:55.515Z,97608.25
2022-10-26T13:47:06.951Z,97604.88
2022-10-26T13:52:21.260Z,97605.03
2022-10-26T13:57:32.435Z,97603.34
2022-10-26T14:02:34.178Z,97612.56
2022-10-26T14:07:37.650Z,97618.53
2022-10-26T14:12:39.539Z,97625.22
2022-10-26T14:17:42.081Z,97632.44
2022-10-26T14:22:44.093Z,97632.50
2022-10-26T14:27:45.899Z,97637.47
2022-10-26T14:32:48.244Z,97643.75
2022-10-26T14:38:01.734Z,97650.41
2022-10-26T14:43:05.458Z,97647.41
2022-10-26T14:48:07.641Z,97649.16
2022-10-26T14:53:18.758Z,97659.38
2022-10-26T15:03:29.251Z,97668.31
2022-10-26T15:08:52.631Z,97678.78
2022-10-26T15:13:59.091Z,97674.31
2022-10-26T15:19:11.140Z,97682.22
2022-10-26T15:24:35.948Z,97688.97
2022-10-26T15:29:44.438Z,97681.75
2022-10-26T15:34:50.583Z,97683.28
2022-10-26T15:39:52.228Z,97685.16
2022-10-26T15:44:54.037Z,97692.22
2022-10-26T15:49:55.815Z,97692.09
2022-10-26T15:54:57.835Z,97703.31
2022-10-26T15:59:59.627Z,97704.06
2022-10-26T16:05:01.573Z,97709.19
2022-10-26T16:10:03.481Z,97712.53
2022-10-26T16:15:06.231Z,97718.81
2022-10-26T16:20:16.482Z,97727.19
2022-10-26T16:25:23.570Z,97733.25
2022-10-26T16:30:30.111Z,97734.28
2022-10-26T16:35:32.177Z,97734.97
2022-10-26T16:40:33.922Z,97734.28
2022-10-26T16:45:35.641Z,97735.06
2022-10-26T16:50:37.383Z,97734.56
2022-10-26T16:55:39.190Z,97746.63
2022-10-26T17:00:40.997Z,97748.75
2022-10-26T17:05:42.799Z,97764.22
2022-10-26T17:10:44.467Z,97767.56
2022-10-26T17:15:46.290Z,97777.56
2022-10-26T17:20:51.637Z,97785.94
2022-10-26T17:25:53.923Z,97789.88
2022-10-26T17:31:12.026Z,97799.28
2022-10-26T17:36:14.159Z,97801.56
2022-10-26T17:41:18.249Z,97813.78
2022-10-26T17:46:24.114Z,97817.66
2022-10-26T17:51:27.490Z,97813.88
2022-10-26T17:56:32.341Z,97829.41
2022-10-26T18:01:34.248Z,97829.69
2022-10-26T18:06:36.033Z,97834.38
2022-10-26T18:11:37.665Z,97845.69
2022-10-26T18:16:39.330Z,97854.84
2022-10-26T18:21:41.006Z,97853.16
2022-10-26T18:26:42.634Z,97864.88
2022-10-26T18:31:44.986Z,97867.06
2022-10-26T18:36:46.660Z,97869.25
2022-10-26T18:41:48.414Z,97877.63
2022-10-26T18:46:51.925Z,97869.91
2022-10-26T18:51:53.801Z,97873.03
2022-10-26T18:56:55.487Z,97882.16
2022-10-26T19:01:57.327Z,97881.09
2022-10-26T19:07:01.429Z,97888.59
2022-10-26T19:12:03.962Z,97897.19
2022-10-26T19:17:05.798Z,97904.38
2022-10-26T19:22:07.702Z,97914.84
2022-10-26T19:27:09.405Z,97918.16
2022-10-26T19:32:12.302Z,97922.03
2022-10-26T19:37:13.992Z,97919.81
2022-10-26T19:42:15.697Z,97929.75
2022-10-26T19:47:17.383Z,97931.97
2022-10-26T19:57:20.734Z,97944.09
2022-10-26T20:02:22.363Z,97939.13
2022-10-26T20:07:24.005Z,97947.38
2022-10-26T20:12:25.680Z,97947.31
2022-10-26T20:17:28.702Z,97952.88
2022-10-26T20:22:30.490Z,97953.66
2022-10-26T20:27:32.149Z,97953.34
2022-10-26T20:32:34.010Z,97959.91
2022-10-26T20:37:36.079Z,97961.03
2022-10-26T20:42:38.359Z,97961.63
2022-10-26T20:47:40.817Z,97957.78
2022-10-26T20:53:01.483Z,97963.28
2022-10-26T20:58:09.753Z,97964.09
2022-10-26T21:03:12.791Z,97965.19
2022-10-26T21:08:14.492Z,97969.88
2022-10-26T21:13:16.638Z,97971.53
2022-10-26T21:18:18.442Z,97982.56
2022-10-26T21:23:20.111Z,97986.94
2022-10-26T21:28:21.867Z,97990.44
2022-10-26T21:33:31.771Z,97988.47
2022-10-26T21:38:34.394Z,97997.78
2022-10-26T21:43:37.907Z,98000.81
2022-10-26T21:48:42.428Z,97994.19
2022-10-26T21:53:44.865Z,98000.72
2022-10-26T21:58:47.312Z,97999.25
2022-10-26T22:03:49.831Z,98004.75
2022-10-26T22:08:56.327Z,97995.72
2022-10-26T22:13:57.991Z,98015.75
2022-10-26T22:19:04.893Z,98008.63
2022-10-26T22:24:07.643Z,98003.03
2022-10-26T22:29:10.013Z,97994.78
2022-10-26T22:34:16.721Z,98005.28
2022-10-26T22:39:18.797Z,98010.25
2022-10-26T22:44:20.429Z,98009.69
2022-10-26T22:49:22.089Z,98009.00
2022-10-26T22:54:23.778Z,97999.63
2022-10-26T22:59:25.584Z,98008.41
2022-10-26T23:04:27.281Z,98005.09
2022-10-26T23:09:29.202Z,98007.47
2022-10-26T23:14:30.905Z,98009.19
2022-10-26T23:19:32.562Z,98013.34
2022-10-26T23:24:34.260Z,98010.47
2022-10-26T23:29:36.062Z,98015.41
2022-10-26T23:34:37.797Z,98018.72
2022-10-26T23:39:39.675Z,98023.50
2022-10-26T23:44:41.402Z,98018.47
2022-10-26T23:49:43.040Z,98019.19
2022-10-26T23:54:44.785Z,98016.75
2022-10-26T23:59:46.477Z,98021.53
